Darstellungsparameter: Aktuell verwendete Einstellungen:
Skalierung der Graphiken ... ?
xyx+y,   Skalierungsfaktor:      Skalierung: Modus: x, Faktor: 1
Darstellungszeitraum ... ?
Vom - - bis: - -   Zeitraum: 28.03.2021 - 28.03.2021
Min/Max/Avg-Anzeige ... ?
Zeige MMA aktuell
Zeige MMA Monat
Zeige MMA alles
Zeige --A aktuell
Zeige --A Monat
Zeige --A alles
Keine MMA-Anzeige
MMA:
Average (ber die Originaldaten)
MMA-Basis: 28.03.2021 - 28.03.2021
Quicknavigation für Darstellung... ?
Tage:      1T, 2T, 3T, 5T -1T -2T -3T -5T +1T +2T +3T +5T
Wochen: 1W, 2W, 3W -1W -2W -3W +1W +2W +3W
Monate: 1M, 3M, 6M -1M -3M -6M +1M +3M +6M
Jahre:    1J, 3J, 5J, 10J -1J -3J -5J -10J +1J +3J +5J +10J
Nutze für die Darstellung ... ?
Originaldaten oder Mittelwerte auf ...
Stundenbasis Tagesbasis Wochenbasis
Monatsbasis Jahresbasis      Datenbasis: Original-Daten
Darstellen als:
Statistik (Auto) Statistik J:M      Darstellung:
Zur Graphik,    zurück zur Übersicht aller Sensoren.
 
Tabellarische Datenbersicht: ?
 
Sensor: Nr:Datum:Temp:Abs-Feuchte:Windchill:Wind:
Aussen-T/F 1 28-03-2021 00:00:00 4.1 C 5.82 g/m*3 4.1 C 4.8 km/h
2 28-03-2021 00:05:00 4.1 C 5.76 g/m*3 4.1 C 3.2 km/h
3 28-03-2021 00:10:00 4 C 5.72 g/m*3 4 C 1.6 km/h
4 28-03-2021 00:15:00 3.9 C 5.68 g/m*3 3.9 C 3.2 km/h
5 28-03-2021 00:20:00 3.9 C 5.68 g/m*3 2.32 C 6.4 km/h
6 28-03-2021 00:25:00 3.9 C 5.75 g/m*3 2.32 C 6.4 km/h
7 28-03-2021 00:30:00 3.9 C 5.75 g/m*3 3.9 C 4.8 km/h
8 28-03-2021 00:35:00 4 C 5.79 g/m*3 2.44 C 6.4 km/h
9 28-03-2021 00:40:00 4 C 5.79 g/m*3 4 C 4.8 km/h
10 28-03-2021 00:45:00 3.9 C 5.75 g/m*3 3.9 C 1.6 km/h
11 28-03-2021 00:50:00 3.9 C 5.75 g/m*3 3.9 C 3.2 km/h
12 28-03-2021 00:55:00 3.8 C 5.71 g/m*3 3.8 C 3.2 km/h
13 28-03-2021 01:00:00 3.8 C 5.71 g/m*3 3.8 C 4.8 km/h
14 28-03-2021 01:05:00 3.8 C 5.71 g/m*3 3.8 C 1.6 km/h
15 28-03-2021 01:10:00 3.8 C 5.71 g/m*3 3.8 C 1.6 km/h
16 28-03-2021 01:15:00 3.9 C 5.81 g/m*3 3.9 C 1.6 km/h
17 28-03-2021 01:20:00 3.9 C 5.81 g/m*3 3.9 C 1.6 km/h
18 28-03-2021 01:25:00 4.1 C 5.89 g/m*3 2.55 C 6.4 km/h
19 28-03-2021 01:30:00 4.2 C 5.93 g/m*3 4.2 C 1.6 km/h
20 28-03-2021 01:35:00 4.3 C 5.97 g/m*3 4.3 C 4.8 km/h
21 28-03-2021 01:40:00 4.4 C 6.01 g/m*3 4.4 C 4.8 km/h
22 28-03-2021 01:45:00 4.5 C 6.05 g/m*3 4.5 C 3.2 km/h
23 28-03-2021 01:50:00 4.6 C 6.09 g/m*3 4.6 C 3.2 km/h
24 28-03-2021 01:55:00 4.6 C 6.02 g/m*3 4.6 C 4.8 km/h
25 28-03-2021 02:00:00 4.7 C 6.06 g/m*3 4.7 C 4.8 km/h
Sensor: Nr:Datum:Temp:Abs-Feuchte:Windchill:Wind:
Aussen-T/F 26 28-03-2021 02:05:00 4.7 C 6.06 g/m*3 2.76 C 8.1 km/h
27 28-03-2021 02:10:00 4.8 C 6.04 g/m*3 2.87 C 8.1 km/h
28 28-03-2021 02:15:00 4.8 C 6.04 g/m*3 2.87 C 8.1 km/h
29 28-03-2021 02:20:00 4.9 C 6.08 g/m*3 4.9 C 4.8 km/h
30 28-03-2021 02:25:00 4.9 C 6.08 g/m*3 4.9 C 4.8 km/h
31 28-03-2021 02:30:00 4.9 C 6.08 g/m*3 3.48 C 6.4 km/h
32 28-03-2021 02:35:00 4.9 C 6.08 g/m*3 4.9 C 3.2 km/h
33 28-03-2021 02:40:00 5 C 6.12 g/m*3 3.11 C 8.1 km/h
34 28-03-2021 02:45:00 5.1 C 6.16 g/m*3 5.1 C 4.8 km/h
35 28-03-2021 02:50:00 5.1 C 6.16 g/m*3 2.84 C 9.7 km/h
36 28-03-2021 02:55:00 5.1 C 6.16 g/m*3 2.84 C 9.7 km/h
37 28-03-2021 04:00:00 5.1 C 6.16 g/m*3 5.1 C 4.8 km/h
38 28-03-2021 04:05:00 5.1 C 6.16 g/m*3 5.1 C 4.8 km/h
39 28-03-2021 04:10:00 5.1 C 6.16 g/m*3 5.1 C 4.8 km/h
40 28-03-2021 04:15:00 5.1 C 6.16 g/m*3 5.1 C 3.2 km/h
41 28-03-2021 04:20:00 5.1 C 6.16 g/m*3 5.1 C 3.2 km/h
42 28-03-2021 04:25:00 5.1 C 6.16 g/m*3 5.1 C 3.2 km/h
43 28-03-2021 04:30:00 5.2 C 6.2 g/m*3 5.2 C 4.8 km/h
44 28-03-2021 04:35:00 5.2 C 6.2 g/m*3 5.2 C 3.2 km/h
45 28-03-2021 04:40:00 5.2 C 6.2 g/m*3 5.2 C 4.8 km/h
46 28-03-2021 04:45:00 5.2 C 6.2 g/m*3 5.2 C 4.8 km/h
47 28-03-2021 04:50:00 5.2 C 6.2 g/m*3 3.82 C 6.4 km/h
48 28-03-2021 04:55:00 5.3 C 6.24 g/m*3 3.94 C 6.4 km/h
49 28-03-2021 05:00:00 5.2 C 6.2 g/m*3 3.82 C 6.4 km/h
50 28-03-2021 05:05:00 5.2 C 6.13 g/m*3 3.82 C 6.4 km/h
Sensor: Nr:Datum:Temp:Abs-Feuchte:Windchill:Wind:
Aussen-T/F 51 28-03-2021 05:10:00 5.1 C 6.09 g/m*3 5.1 C 4.8 km/h
52 28-03-2021 05:15:00 5.1 C 6.09 g/m*3 5.1 C 4.8 km/h
53 28-03-2021 05:20:00 5 C 6.12 g/m*3 5 C 4.8 km/h
54 28-03-2021 05:25:00 4.9 C 6.08 g/m*3 4.9 C 4.8 km/h
55 28-03-2021 05:30:00 4.9 C 6.08 g/m*3 3.48 C 6.4 km/h
56 28-03-2021 05:35:00 4.9 C 6.08 g/m*3 4.9 C 3.2 km/h
57 28-03-2021 05:40:00 4.8 C 6.04 g/m*3 4.8 C 4.8 km/h
58 28-03-2021 05:45:00 4.8 C 6.04 g/m*3 4.8 C 4.8 km/h
59 28-03-2021 05:50:00 4.8 C 6.04 g/m*3 2.87 C 8.1 km/h
60 28-03-2021 05:55:00 4.7 C 6 g/m*3 4.7 C 3.2 km/h
61 28-03-2021 06:00:00 4.7 C 6 g/m*3 3.25 C 6.4 km/h
62 28-03-2021 06:05:00 4.6 C 5.96 g/m*3 4.6 C 3.2 km/h
63 28-03-2021 06:10:00 4.6 C 5.96 g/m*3 4.6 C 4.8 km/h
64 28-03-2021 06:15:00 4.4 C 5.88 g/m*3 4.4 C 4.8 km/h
65 28-03-2021 06:20:00 4.4 C 5.88 g/m*3 4.4 C 1.6 km/h
66 28-03-2021 06:25:00 4.4 C 5.88 g/m*3 4.4 C 1.6 km/h
67 28-03-2021 06:30:00 4.4 C 5.94 g/m*3 4.4 C 4.8 km/h
68 28-03-2021 06:35:00 4.4 C 5.94 g/m*3 4.4 C 4.8 km/h
69 28-03-2021 06:40:00 4.4 C 5.94 g/m*3 2.9 C 6.4 km/h
70 28-03-2021 06:45:00 4.4 C 5.94 g/m*3 2.9 C 6.4 km/h
71 28-03-2021 06:50:00 4.4 C 5.94 g/m*3 4.4 C 3.2 km/h
72 28-03-2021 06:55:00 4.4 C 5.94 g/m*3 2.4 C 8.1 km/h
73 28-03-2021 07:00:00 4.5 C 5.98 g/m*3 3.02 C 6.4 km/h
74 28-03-2021 07:05:00 4.5 C 5.98 g/m*3 3.02 C 6.4 km/h
75 28-03-2021 07:10:00 4.6 C 6.02 g/m*3 4.6 C 4.8 km/h
Sensor: Nr:Datum:Temp:Abs-Feuchte:Windchill:Wind:
Aussen-T/F 76 28-03-2021 07:15:00 4.7 C 6.06 g/m*3 3.25 C 6.4 km/h
77 28-03-2021 07:20:00 4.7 C 6.06 g/m*3 2.76 C 8.1 km/h
78 28-03-2021 07:25:00 4.9 C 6.14 g/m*3 2.99 C 8.1 km/h
79 28-03-2021 07:30:00 5 C 6.18 g/m*3 3.59 C 6.4 km/h
80 28-03-2021 07:35:00 5.2 C 6.2 g/m*3 3.34 C 8.1 km/h
81 28-03-2021 07:40:00 5.3 C 6.24 g/m*3 2.75 C 11.3 km/h
82 28-03-2021 07:45:00 5.5 C 6.25 g/m*3 3.7 C 8.1 km/h
83 28-03-2021 07:50:00 5.6 C 6.22 g/m*3 3.44 C 9.7 km/h
84 28-03-2021 07:55:00 5.7 C 6.26 g/m*3 3.23 C 11.3 km/h
85 28-03-2021 08:00:00 5.9 C 6.35 g/m*3 4.17 C 8.1 km/h
86 28-03-2021 08:05:00 5.9 C 6.27 g/m*3 3.8 C 9.7 km/h
87 28-03-2021 08:10:00 5.9 C 6.27 g/m*3 4.63 C 6.4 km/h
88 28-03-2021 08:15:00 5.9 C 6.27 g/m*3 3.8 C 9.7 km/h
89 28-03-2021 08:20:00 5.9 C 6.27 g/m*3 4.63 C 6.4 km/h
90 28-03-2021 08:25:00 6 C 6.31 g/m*3 3.92 C 9.7 km/h
91 28-03-2021 08:30:00 6.1 C 6.36 g/m*3 4.4 C 8.1 km/h
92 28-03-2021 08:35:00 6.1 C 6.36 g/m*3 4.86 C 6.4 km/h
93 28-03-2021 08:40:00 6.2 C 6.4 g/m*3 4.98 C 6.4 km/h
94 28-03-2021 08:45:00 6.3 C 6.44 g/m*3 4.27 C 9.7 km/h
95 28-03-2021 08:50:00 6.3 C 6.44 g/m*3 4.64 C 8.1 km/h
96 28-03-2021 08:55:00 6.3 C 6.44 g/m*3 5.1 C 6.4 km/h
97 28-03-2021 09:00:00 6.3 C 6.44 g/m*3 4.64 C 8.1 km/h
98 28-03-2021 09:05:00 6.3 C 6.44 g/m*3 4.64 C 8.1 km/h
99 28-03-2021 09:10:00 6.4 C 6.48 g/m*3 4.75 C 8.1 km/h
100 28-03-2021 09:15:00 6.6 C 6.57 g/m*3 4.63 C 9.7 km/h
Sensor: Nr:Datum:Temp:Abs-Feuchte:Windchill:Wind:
Aussen-T/F 101 28-03-2021 09:20:00 6.7 C 6.61 g/m*3 5.11 C 8.1 km/h
102 28-03-2021 09:25:00 6.8 C 6.65 g/m*3 5.67 C 6.4 km/h
103 28-03-2021 09:30:00 6.9 C 6.7 g/m*3 5.34 C 8.1 km/h
104 28-03-2021 09:35:00 7.1 C 6.71 g/m*3 5.58 C 8.1 km/h
105 28-03-2021 09:40:00 7.2 C 6.75 g/m*3 7.2 C 4.8 km/h
106 28-03-2021 09:45:00 7.3 C 6.79 g/m*3 6.25 C 6.4 km/h
107 28-03-2021 09:50:00 7.4 C 6.84 g/m*3 7.4 C 3.2 km/h
108 28-03-2021 09:55:00 7.6 C 6.85 g/m*3 6.16 C 8.1 km/h
109 28-03-2021 10:00:00 7.6 C 6.77 g/m*3 6.16 C 8.1 km/h
110 28-03-2021 10:05:00 7.7 C 6.73 g/m*3 5.94 C 9.7 km/h
111 28-03-2021 10:10:00 7.7 C 6.73 g/m*3 6.71 C 6.4 km/h
112 28-03-2021 10:15:00 7.7 C 6.73 g/m*3 7.7 C 4.8 km/h
113 28-03-2021 10:20:00 7.7 C 6.73 g/m*3 7.7 C 0 km/h
114 28-03-2021 10:25:00 7.7 C 6.73 g/m*3 7.7 C 3.2 km/h
115 28-03-2021 10:30:00 7.9 C 6.74 g/m*3 6.52 C 8.1 km/h
116 28-03-2021 10:35:00 8.3 C 6.91 g/m*3 7.41 C 6.4 km/h
117 28-03-2021 10:40:00 8.7 C 7.01 g/m*3 7.87 C 6.4 km/h
118 28-03-2021 10:45:00 9.1 C 7.1 g/m*3 9.1 C 4.8 km/h
119 28-03-2021 10:50:00 9.4 C 7.05 g/m*3 9.4 C 4.8 km/h
120 28-03-2021 10:55:00 9.7 C 7.19 g/m*3 9.7 C 1.6 km/h
121 28-03-2021 11:00:00 9.8 C 7.14 g/m*3 9.8 C 1.6 km/h
122 28-03-2021 11:05:00 10 C 7.24 g/m*3 10 C 3.2 km/h
123 28-03-2021 11:10:00 10.2 C 7.14 g/m*3 10.2 C 4.8 km/h
124 28-03-2021 11:15:00 10.3 C 7.18 g/m*3 9.34 C 8.1 km/h
125 28-03-2021 11:20:00 10.6 C 7.22 g/m*3 9.14 C 11.3 km/h
Sensor: Nr:Datum:Temp:Abs-Feuchte:Windchill:Wind:
Aussen-T/F 126 28-03-2021 11:25:00 10.7 C 7.17 g/m*3 9.52 C 9.7 km/h
127 28-03-2021 11:30:00 10.8 C 7.22 g/m*3 9.64 C 9.7 km/h
128 28-03-2021 11:35:00 10.8 C 7.12 g/m*3 9.16 C 12.9 km/h
129 28-03-2021 11:40:00 11 C 7.31 g/m*3 9.4 C 12.9 km/h
130 28-03-2021 11:45:00 11.2 C 7.1 g/m*3 11.2 C 11.3 km/h
131 28-03-2021 11:50:00 11.3 C 7.14 g/m*3 11.3 C 9.7 km/h
132 28-03-2021 11:55:00 11.3 C 6.94 g/m*3 11.3 C 14.5 km/h
133 28-03-2021 12:00:00 11.4 C 6.77 g/m*3 11.4 C 14.5 km/h
134 28-03-2021 12:05:00 11.5 C 6.82 g/m*3 11.5 C 12.9 km/h
135 28-03-2021 12:10:00 11.6 C 6.76 g/m*3 11.6 C 14.5 km/h
136 28-03-2021 12:15:00 11.7 C 6.69 g/m*3 11.7 C 16.1 km/h
137 28-03-2021 12:20:00 11.8 C 6.63 g/m*3 11.8 C 12.9 km/h
138 28-03-2021 12:25:00 12 C 6.61 g/m*3 12 C 16.1 km/h
139 28-03-2021 12:30:00 12.2 C 6.58 g/m*3 12.2 C 14.5 km/h
140 28-03-2021 12:35:00 12.6 C 6.75 g/m*3 12.6 C 12.9 km/h
141 28-03-2021 12:40:00 12.6 C 6.64 g/m*3 12.6 C 17.7 km/h
142 28-03-2021 12:45:00 12.5 C 6.6 g/m*3 12.5 C 22.5 km/h
143 28-03-2021 12:50:00 12.4 C 6.66 g/m*3 12.4 C 12.9 km/h
144 28-03-2021 12:55:00 12.6 C 6.75 g/m*3 12.6 C 14.5 km/h
145 28-03-2021 13:00:00 12.7 C 6.57 g/m*3 12.7 C 20.9 km/h
146 28-03-2021 13:05:00 12.8 C 6.38 g/m*3 12.8 C 12.9 km/h
147 28-03-2021 13:10:00 12.8 C 6.27 g/m*3 12.8 C 17.7 km/h
148 28-03-2021 13:15:00 13.1 C 6.28 g/m*3 13.1 C 25.7 km/h
149 28-03-2021 13:20:00 13.2 C 6.32 g/m*3 13.2 C 22.5 km/h
150 28-03-2021 13:25:00 13.3 C 6.35 g/m*3 13.3 C 17.7 km/h
Sensor: Nr:Datum:Temp:Abs-Feuchte:Windchill:Wind:
Aussen-T/F 151 28-03-2021 13:30:00 13.6 C 6.36 g/m*3 13.6 C 17.7 km/h
152 28-03-2021 13:35:00 13.7 C 6.28 g/m*3 13.7 C 24.1 km/h
153 28-03-2021 13:40:00 13.8 C 6.2 g/m*3 13.8 C 24.1 km/h
154 28-03-2021 13:45:00 13.7 C 6.28 g/m*3 13.7 C 17.7 km/h
155 28-03-2021 13:50:00 13.7 C 6.51 g/m*3 13.7 C 20.9 km/h
156 28-03-2021 13:55:00 13.7 C 6.39 g/m*3 13.7 C 19.3 km/h
157 28-03-2021 14:00:00 13.8 C 6.31 g/m*3 13.8 C 19.3 km/h
158 28-03-2021 14:05:00 13.8 C 6.43 g/m*3 13.8 C 19.3 km/h
159 28-03-2021 14:10:00 13.9 C 6.35 g/m*3 13.9 C 16.1 km/h
160 28-03-2021 14:15:00 14.1 C 6.55 g/m*3 14.1 C 14.5 km/h
161 28-03-2021 14:20:00 14.2 C 6.35 g/m*3 14.2 C 22.5 km/h
162 28-03-2021 14:25:00 14.3 C 6.39 g/m*3 14.3 C 19.3 km/h
163 28-03-2021 14:30:00 14.5 C 6.47 g/m*3 14.5 C 16.1 km/h
164 28-03-2021 14:35:00 14.6 C 6.51 g/m*3 14.6 C 24.1 km/h
165 28-03-2021 14:40:00 14.6 C 6.63 g/m*3 14.6 C 17.7 km/h
166 28-03-2021 14:45:00 14.6 C 6.38 g/m*3 14.6 C 22.5 km/h
167 28-03-2021 14:50:00 14.6 C 6.51 g/m*3 14.6 C 19.3 km/h
168 28-03-2021 14:55:00 14.7 C 6.42 g/m*3 14.7 C 17.7 km/h
169 28-03-2021 15:00:00 14.8 C 6.46 g/m*3 14.8 C 19.3 km/h
170 28-03-2021 15:05:00 14.7 C 6.42 g/m*3 14.7 C 17.7 km/h
171 28-03-2021 15:10:00 14.7 C 6.42 g/m*3 14.7 C 17.7 km/h
172 28-03-2021 15:15:00 14.8 C 6.46 g/m*3 14.8 C 22.5 km/h
173 28-03-2021 15:20:00 14.8 C 6.46 g/m*3 14.8 C 12.9 km/h
174 28-03-2021 15:25:00 14.9 C 6.5 g/m*3 14.9 C 17.7 km/h
175 28-03-2021 15:30:00 14.9 C 6.5 g/m*3 14.9 C 22.5 km/h
Sensor: Nr:Datum:Temp:Abs-Feuchte:Windchill:Wind:
Aussen-T/F 176 28-03-2021 15:35:00 15.1 C 6.58 g/m*3 15.1 C 12.9 km/h
177 28-03-2021 15:40:00 15.2 C 6.49 g/m*3 15.2 C 14.5 km/h
178 28-03-2021 15:45:00 15.1 C 6.32 g/m*3 15.1 C 16.1 km/h
179 28-03-2021 15:50:00 14.9 C 6.5 g/m*3 14.9 C 16.1 km/h
180 28-03-2021 15:55:00 14.9 C 6.37 g/m*3 14.9 C 16.1 km/h
181 28-03-2021 16:00:00 15.1 C 6.58 g/m*3 15.1 C 11.3 km/h
182 28-03-2021 16:05:00 15.2 C 6.49 g/m*3 15.2 C 9.7 km/h
183 28-03-2021 16:10:00 15.3 C 6.53 g/m*3 15.3 C 16.1 km/h
184 28-03-2021 16:15:00 15.4 C 6.7 g/m*3 15.4 C 11.3 km/h
185 28-03-2021 16:20:00 15.4 C 6.57 g/m*3 15.4 C 16.1 km/h
186 28-03-2021 16:25:00 15.5 C 6.48 g/m*3 15.5 C 22.5 km/h
187 28-03-2021 16:30:00 15.6 C 6.38 g/m*3 15.6 C 14.5 km/h
188 28-03-2021 16:35:00 15.6 C 6.38 g/m*3 15.6 C 17.7 km/h
189 28-03-2021 16:40:00 15.6 C 6.38 g/m*3 15.6 C 19.3 km/h
190 28-03-2021 16:45:00 15.7 C 6.42 g/m*3 15.7 C 17.7 km/h
191 28-03-2021 16:50:00 15.7 C 6.42 g/m*3 15.7 C 24.1 km/h
192 28-03-2021 16:55:00 15.6 C 6.52 g/m*3 15.6 C 12.9 km/h
193 28-03-2021 17:00:00 15.7 C 6.56 g/m*3 15.7 C 9.7 km/h
194 28-03-2021 17:05:00 15.7 C 6.56 g/m*3 15.7 C 14.5 km/h
195 28-03-2021 17:10:00 15.7 C 6.42 g/m*3 15.7 C 11.3 km/h
196 28-03-2021 17:15:00 15.6 C 6.52 g/m*3 15.6 C 20.9 km/h
197 28-03-2021 17:20:00 15.5 C 6.48 g/m*3 15.5 C 14.5 km/h
198 28-03-2021 17:25:00 15.4 C 6.44 g/m*3 15.4 C 20.9 km/h
199 28-03-2021 17:30:00 15.3 C 6.4 g/m*3 15.3 C 16.1 km/h
200 28-03-2021 17:35:00 15.3 C 6.53 g/m*3 15.3 C 16.1 km/h
Sensor: Nr:Datum:Temp:Abs-Feuchte:Windchill:Wind:
Aussen-T/F 201 28-03-2021 17:40:00 15.3 C 6.53 g/m*3 15.3 C 14.5 km/h
202 28-03-2021 17:45:00 15.4 C 6.44 g/m*3 15.4 C 16.1 km/h
203 28-03-2021 17:50:00 15.4 C 6.44 g/m*3 15.4 C 14.5 km/h
204 28-03-2021 17:55:00 15.5 C 6.34 g/m*3 15.5 C 12.9 km/h
205 28-03-2021 18:00:00 15.6 C 6.38 g/m*3 15.6 C 11.3 km/h
206 28-03-2021 18:05:00 15.6 C 6.52 g/m*3 15.6 C 11.3 km/h
207 28-03-2021 18:10:00 15.7 C 6.56 g/m*3 15.7 C 11.3 km/h
208 28-03-2021 18:15:00 15.9 C 6.5 g/m*3 15.9 C 12.9 km/h
209 28-03-2021 18:20:00 15.9 C 6.37 g/m*3 15.9 C 12.9 km/h
210 28-03-2021 18:25:00 16 C 6.4 g/m*3 16 C 9.7 km/h
211 28-03-2021 18:30:00 16.1 C 6.58 g/m*3 16.1 C 12.9 km/h
212 28-03-2021 18:35:00 16.2 C 6.48 g/m*3 16.2 C 16.1 km/h
213 28-03-2021 18:40:00 15.8 C 6.19 g/m*3 15.8 C 17.7 km/h
214 28-03-2021 18:45:00 15.4 C 6.31 g/m*3 15.4 C 17.7 km/h
215 28-03-2021 18:50:00 15.2 C 6.23 g/m*3 15.2 C 12.9 km/h
216 28-03-2021 18:55:00 14.9 C 6.25 g/m*3 14.9 C 11.3 km/h
217 28-03-2021 19:00:00 14.8 C 6.33 g/m*3 14.8 C 6.4 km/h
218 28-03-2021 19:05:00 14.6 C 6.38 g/m*3 14.6 C 9.7 km/h
219 28-03-2021 19:10:00 14.5 C 6.34 g/m*3 14.5 C 9.7 km/h
220 28-03-2021 19:15:00 14.3 C 6.51 g/m*3 14.3 C 8.1 km/h
221 28-03-2021 19:20:00 14.2 C 6.47 g/m*3 14.2 C 4.8 km/h
222 28-03-2021 19:25:00 14.1 C 6.19 g/m*3 14.1 C 8.1 km/h
223 28-03-2021 19:30:00 13.9 C 6.35 g/m*3 13.9 C 8.1 km/h
224 28-03-2021 19:35:00 13.8 C 6.43 g/m*3 13.8 C 3.2 km/h
225 28-03-2021 19:40:00 13.6 C 6.59 g/m*3 13.6 C 4.8 km/h
Sensor: Nr:Datum:Temp:Abs-Feuchte:Windchill:Wind:
Aussen-T/F 226 28-03-2021 19:45:00 13.4 C 6.39 g/m*3 13.4 C 4.8 km/h
227 28-03-2021 19:50:00 13.2 C 6.43 g/m*3 13.2 C 6.4 km/h
228 28-03-2021 19:55:00 12.9 C 6.31 g/m*3 12.9 C 9.7 km/h
229 28-03-2021 20:00:00 12.7 C 6.35 g/m*3 12.7 C 11.3 km/h
230 28-03-2021 20:05:00 12.7 C 6.35 g/m*3 12.7 C 11.3 km/h
231 28-03-2021 20:10:00 12.6 C 6.2 g/m*3 12.6 C 8.1 km/h
232 28-03-2021 20:15:00 12.5 C 6.27 g/m*3 12.5 C 4.8 km/h
233 28-03-2021 20:20:00 12.4 C 6.34 g/m*3 12.4 C 4.8 km/h
234 28-03-2021 20:25:00 12.2 C 6.15 g/m*3 12.2 C 6.4 km/h
235 28-03-2021 20:30:00 12.1 C 6.11 g/m*3 12.1 C 8.1 km/h
236 28-03-2021 20:35:00 12.1 C 6.11 g/m*3 12.1 C 4.8 km/h
237 28-03-2021 20:40:00 12.1 C 6.22 g/m*3 12.1 C 6.4 km/h
238 28-03-2021 20:45:00 11.9 C 6.25 g/m*3 11.9 C 4.8 km/h
239 28-03-2021 20:50:00 11.8 C 6.42 g/m*3 11.8 C 3.2 km/h
240 28-03-2021 20:55:00 11.6 C 6.44 g/m*3 11.6 C 3.2 km/h
241 28-03-2021 21:00:00 11.3 C 6.53 g/m*3 11.3 C 3.2 km/h
242 28-03-2021 21:05:00 11.1 C 6.45 g/m*3 11.1 C 3.2 km/h
243 28-03-2021 21:10:00 10.8 C 6.42 g/m*3 10.8 C 3.2 km/h
244 28-03-2021 21:15:00 10.6 C 6.44 g/m*3 10.6 C 4.8 km/h
245 28-03-2021 21:20:00 10.4 C 6.46 g/m*3 10.4 C 4.8 km/h
246 28-03-2021 21:25:00 10.3 C 6.51 g/m*3 10.3 C 3.2 km/h
247 28-03-2021 21:30:00 10.2 C 6.47 g/m*3 10.2 C 0 km/h
248 28-03-2021 21:35:00 10.1 C 6.52 g/m*3 10.1 C 0 km/h
249 28-03-2021 21:40:00 9.8 C 6.31 g/m*3 9.8 C 0 km/h
250 28-03-2021 21:45:00 9.7 C 6.45 g/m*3 9.7 C 0 km/h
Sensor: Nr:Datum:Temp:Abs-Feuchte:Windchill:Wind:
Aussen-T/F 251 28-03-2021 21:50:00 9.6 C 6.41 g/m*3 9.6 C 0 km/h
252 28-03-2021 21:55:00 9.4 C 6.42 g/m*3 9.4 C 0 km/h
253 28-03-2021 22:00:00 9.3 C 6.38 g/m*3 9.3 C 0 km/h
254 28-03-2021 22:05:00 9.2 C 6.43 g/m*3 9.2 C 0 km/h
255 28-03-2021 22:10:00 9.1 C 6.48 g/m*3 9.1 C 0 km/h
256 28-03-2021 22:15:00 9.1 C 6.48 g/m*3 9.1 C 0 km/h
257 28-03-2021 22:20:00 9 C 6.44 g/m*3 9 C 0 km/h
258 28-03-2021 22:25:00 9 C 6.52 g/m*3 9 C 0 km/h
259 28-03-2021 22:30:00 8.9 C 6.48 g/m*3 8.9 C 0 km/h
260 28-03-2021 22:35:00 8.9 C 6.57 g/m*3 8.9 C 0 km/h
261 28-03-2021 22:40:00 8.8 C 6.53 g/m*3 8.8 C 0 km/h
262 28-03-2021 22:45:00 8.8 C 6.53 g/m*3 8.8 C 0 km/h
263 28-03-2021 22:50:00 8.8 C 6.53 g/m*3 8.8 C 0 km/h
264 28-03-2021 22:55:00 8.8 C 6.61 g/m*3 8.8 C 0 km/h
265 28-03-2021 23:00:00 8.8 C 6.61 g/m*3 8.8 C 0 km/h
266 28-03-2021 23:05:00 8.7 C 6.57 g/m*3 8.7 C 0 km/h
267 28-03-2021 23:10:00 8.7 C 6.57 g/m*3 8.7 C 0 km/h
268 28-03-2021 23:15:00 8.7 C 6.57 g/m*3 8.7 C 0 km/h
269 28-03-2021 23:20:00 8.6 C 6.53 g/m*3 8.6 C 0 km/h
270 28-03-2021 23:25:00 8.6 C 6.44 g/m*3 8.6 C 0 km/h
271 28-03-2021 23:30:00 8.4 C 6.36 g/m*3 8.4 C 0 km/h
272 28-03-2021 23:35:00 8.4 C 6.45 g/m*3 8.4 C 0 km/h
273 28-03-2021 23:40:00 8.3 C 6.49 g/m*3 8.3 C 0 km/h
274 28-03-2021 23:45:00 8.3 C 6.49 g/m*3 8.3 C 0 km/h
275 28-03-2021 23:50:00 8.2 C 6.45 g/m*3 8.2 C 0 km/h
Sensor: Nr:Datum:Temp:Abs-Feuchte:Windchill:Wind:
Aussen-T/F 276 28-03-2021 23:55:00 8.1 C 6.49 g/m*3 8.1 C 0 km/h

Legende:
   Min
   Max


Maximal/Minimal-Werte vom 28.03.2021 - 28.03.2021

Sensor Min Max Avg
Temp
(Aussen-T/F)
3.8 °C
28-03-2021  00:55:00
16.2 °C
28-03-2021  18:35:00
9.55 °C
Abs-Feuchte
(Aussen-T/F)
5.68 g/m*3
28-03-2021  00:15:00
7.31 g/m*3
28-03-2021  11:40:00
6.35 g/m*3
Windchill
(Aussen-T/F)
2.32 C
28-03-2021  00:20:00
16.2 C
28-03-2021  18:35:00
9.13 C

Die Daten stammen von einer Davis Vantage Pro 2 Wetter-Station und werden unter Linux mit der Software wview2wettercgi und aufbereitet. Alle Angaben erfolgen ohne Gewähr für ihre Vollständigkeit oder Richtigkeit.
Kontakt: Rainer Krienke krienke@uni-koblenz.de . Meine Webseiten an der Uni Koblenz oder privat.
Version: $Revision: 0.78 $